Time;durP1;ratioP1;P1;durP2;ratioP2;P2;SDS_P1;SDS_P2;PMS_P1;PMS_P2;Temp;Humidity;BMP_temperature;BMP_pressure;BME280_temperature;BME280_humidity;BME280_pressure;Samples;Min_cycle;Max_cycle;Signal;HPM_P1;HPM_P2
2024/04/02 00:01:14;;;;;;;;;;;21.00;58.00;;;;;;5039993;28;88503;-60
2024/04/02 00:03:41;;;;;;;;;;;21.00;57.90;;;;;;5046925;28;86921;-59
2024/04/02 00:06:07;;;;;;;;;;;21.00;58.00;;;;;;5040410;28;87828;-61
2024/04/02 00:08:32;;;;;;;;;;;21.00;58.00;;;;;;5043415;28;87655;-61
2024/04/02 00:11:05;;;;;;;;;;;21.00;58.00;;;;;;5041572;28;88000;-60
2024/04/02 00:13:31;;;;;;;;;;;20.90;58.00;;;;;;5042266;27;88000;-61
2024/04/02 00:15:57;;;;;;;;;;;20.90;57.90;;;;;;5044528;28;87065;-61
2024/04/02 00:18:24;;;;;;;;;;;20.90;57.90;;;;;;5044898;27;87011;-61
2024/04/02 00:20:49;;;;;;;;;;;20.90;58.00;;;;;;5043345;28;88017;-59
2024/04/02 00:23:15;;;;;;;;;;;20.90;58.00;;;;;;5042717;27;87592;-61
2024/04/02 00:25:43;;;;;;;;;;;20.90;58.10;;;;;;5045792;28;88001;-58
2024/04/02 00:28:11;;;;;;;;;;;20.90;58.10;;;;;;5045157;27;87367;-60
2024/04/02 00:30:37;;;;;;;;;;;20.90;57.90;;;;;;5045207;28;86968;-61
2024/04/02 00:33:02;;;;;;;;;;;20.80;58.10;;;;;;5044024;27;87663;-60
2024/04/02 00:35:28;;;;;;;;;;;20.80;58.20;;;;;;5044810;27;87903;-60
2024/04/02 00:37:54;;;;;;;;;;;20.80;58.20;;;;;;5044407;28;87050;-61
2024/04/02 00:40:19;;;;;;;;;;;20.80;59.00;;;;;;5043848;27;87430;-60
2024/04/02 00:42:45;;;;;;;;;;;20.80;58.20;;;;;;5043906;28;86990;-60
2024/04/02 00:45:11;;;;;;;;;;;20.80;58.40;;;;;;5045059;27;87087;-60
2024/04/02 00:47:37;;;;;;;;;;;20.80;58.40;;;;;;5047455;27;88625;-60
2024/04/02 00:50:03;;;;;;;;;;;20.80;58.40;;;;;;5044251;27;87866;-61
2024/04/02 00:52:29;;;;;;;;;;;20.70;58.40;;;;;;5043614;27;88001;-60
2024/04/02 00:54:55;;;;;;;;;;;20.70;58.50;;;;;;5043370;28;86986;-61
2024/04/02 00:57:21;;;;;;;;;;;20.80;58.50;;;;;;5040914;27;87969;-61
2024/04/02 00:59:47;;;;;;;;;;;20.70;58.60;;;;;;5042790;27;87608;-61
2024/04/02 01:02:12;;;;;;;;;;;20.70;58.60;;;;;;5039585;27;87056;-60
2024/04/02 01:04:38;;;;;;;;;;;20.70;58.50;;;;;;5043249;27;88129;-59
2024/04/02 01:07:03;;;;;;;;;;;20.70;58.60;;;;;;5044828;28;86582;-60
2024/04/02 01:09:29;;;;;;;;;;;20.70;58.40;;;;;;5047933;27;86975;-61
2024/04/02 01:11:55;;;;;;;;;;;20.70;58.40;;;;;;5042746;27;87272;-61
2024/04/02 01:14:21;;;;;;;;;;;20.60;58.30;;;;;;5039572;28;87898;-60
2024/04/02 01:16:46;;;;;;;;;;;20.60;58.30;;;;;;5044254;28;87801;-59
2024/04/02 01:19:12;;;;;;;;;;;20.60;58.90;;;;;;5044040;28;88129;-61
2024/04/02 01:21:38;;;;;;;;;;;20.60;58.30;;;;;;5043717;27;87045;-61
2024/04/02 01:24:04;;;;;;;;;;;20.60;58.10;;;;;;5041436;28;89905;-61
2024/04/02 01:26:30;;;;;;;;;;;20.60;58.20;;;;;;5043403;27;87925;-60
2024/04/02 01:28:58;;;;;;;;;;;20.60;58.10;;;;;;5043397;28;87029;-61
2024/04/02 01:31:27;;;;;;;;;;;20.60;57.90;;;;;;5044250;27;86308;-61
2024/04/02 01:33:52;;;;;;;;;;;20.60;57.80;;;;;;5042198;28;86982;-60
2024/04/02 01:36:18;;;;;;;;;;;20.60;57.80;;;;;;5044300;27;87986;-61
2024/04/02 01:38:43;;;;;;;;;;;20.50;57.60;;;;;;5042802;28;88693;-61
2024/04/02 01:41:09;;;;;;;;;;;20.50;57.60;;;;;;5044109;28;87044;-60
2024/04/02 01:43:34;;;;;;;;;;;20.50;57.40;;;;;;5043848;27;87088;-61
2024/04/02 01:46:00;;;;;;;;;;;20.50;57.40;;;;;;5046635;28;87417;-61
2024/04/02 01:48:26;;;;;;;;;;;20.50;57.50;;;;;;5047045;28;87199;-60
2024/04/02 01:50:51;;;;;;;;;;;20.50;57.20;;;;;;5049004;28;87047;-60
2024/04/02 01:53:17;;;;;;;;;;;20.50;57.20;;;;;;5047511;28;87314;-60
2024/04/02 01:55:44;;;;;;;;;;;20.40;57.20;;;;;;5047822;28;87008;-59
2024/04/02 01:58:09;;;;;;;;;;;20.40;56.90;;;;;;5043924;27;86911;-60
2024/04/02 02:00:35;;;;;;;;;;;20.40;57.00;;;;;;5046503;27;87221;-61
2024/04/02 02:03:00;;;;;;;;;;;20.40;56.80;;;;;;5044632;28;88330;-59
2024/04/02 02:05:26;;;;;;;;;;;20.40;57.00;;;;;;5047022;28;87993;-60
2024/04/02 02:07:51;;;;;;;;;;;20.40;56.80;;;;;;5042827;27;87657;-59
2024/04/02 02:10:17;;;;;;;;;;;20.30;56.70;;;;;;5047319;28;87103;-61
2024/04/02 02:12:43;;;;;;;;;;;20.30;56.60;;;;;;5046417;27;87710;-60
2024/04/02 02:15:08;;;;;;;;;;;20.30;56.70;;;;;;5046706;27;87679;-58
2024/04/02 02:17:34;;;;;;;;;;;20.40;56.60;;;;;;5045666;28;88013;-61
2024/04/02 02:19:59;;;;;;;;;;;20.30;56.60;;;;;;5046426;28;86630;-61
2024/04/02 02:22:25;;;;;;;;;;;20.30;56.40;;;;;;5047088;27;87113;-60
2024/04/02 02:24:50;;;;;;;;;;;20.30;56.20;;;;;;5045994;27;87597;-61
2024/04/02 02:27:16;;;;;;;;;;;20.30;56.10;;;;;;5044020;27;88171;-60
2024/04/02 02:29:42;;;;;;;;;;;20.30;55.90;;;;;;5043453;28;87725;-61
2024/04/02 02:32:07;;;;;;;;;;;20.20;56.00;;;;;;5045253;28;87609;-61
2024/04/02 02:34:33;;;;;;;;;;;20.20;56.00;;;;;;5049541;28;87417;-61
2024/04/02 02:36:58;;;;;;;;;;;20.20;56.00;;;;;;5045661;28;87737;-60
2024/04/02 02:39:24;;;;;;;;;;;20.20;56.10;;;;;;5045314;28;86974;-60
2024/04/02 02:41:50;;;;;;;;;;;20.20;55.70;;;;;;5045057;27;87117;-61
2024/04/02 02:44:15;;;;;;;;;;;20.20;55.50;;;;;;5042665;27;87184;-61
2024/04/02 02:46:41;;;;;;;;;;;20.10;55.20;;;;;;5044607;28;87775;-57
2024/04/02 02:49:06;;;;;;;;;;;20.20;55.20;;;;;;5042582;28;87996;-61
2024/04/02 02:51:32;;;;;;;;;;;20.10;55.70;;;;;;5044550;28;87798;-61
2024/04/02 02:53:57;;;;;;;;;;;20.10;55.20;;;;;;5043066;28;87081;-61
2024/04/02 02:56:23;;;;;;;;;;;20.10;55.20;;;;;;5047333;28;87207;-61
2024/04/02 02:58:52;;;;;;;;;;;20.10;55.30;;;;;;5044356;28;87000;-60
2024/04/02 03:01:17;;;;;;;;;;;20.10;55.30;;;;;;5045043;27;87413;-59
2024/04/02 03:03:47;;;;;;;;;;;20.10;55.50;;;;;;5044331;27;87050;-60
2024/04/02 03:06:12;;;;;;;;;;;20.10;55.50;;;;;;5045223;27;86980;-60
2024/04/02 03:08:38;;;;;;;;;;;20.10;55.60;;;;;;5046099;28;86757;-60
2024/04/02 03:11:04;;;;;;;;;;;20.00;55.60;;;;;;5044715;27;87990;-59
2024/04/02 03:13:30;;;;;;;;;;;20.00;55.50;;;;;;5042017;27;86971;-60
2024/04/02 03:15:56;;;;;;;;;;;20.00;55.50;;;;;;5043588;27;88793;-60
2024/04/02 03:18:22;;;;;;;;;;;20.00;55.60;;;;;;5047770;28;87307;-60
2024/04/02 03:20:48;;;;;;;;;;;20.00;55.70;;;;;;5045211;27;86898;-61
2024/04/02 03:23:13;;;;;;;;;;;20.00;55.50;;;;;;5042879;27;87170;-59
2024/04/02 03:25:39;;;;;;;;;;;20.00;55.40;;;;;;5044539;27;87028;-60
2024/04/02 03:28:05;;;;;;;;;;;20.00;55.40;;;;;;5044464;27;87145;-60
2024/04/02 03:30:31;;;;;;;;;;;20.00;55.50;;;;;;5044158;27;87471;-60
2024/04/02 03:32:56;;;;;;;;;;;20.00;55.40;;;;;;5045362;27;86162;-61
2024/04/02 03:35:22;;;;;;;;;;;20.00;55.30;;;;;;5044690;27;86933;-60
2024/04/02 03:37:48;;;;;;;;;;;20.00;55.20;;;;;;4996027;27;1364938;-62
2024/04/02 03:40:13;;;;;;;;;;;20.00;55.30;;;;;;5047954;28;87965;-61
2024/04/02 03:42:39;;;;;;;;;;;20.00;55.20;;;;;;5045400;28;87678;-58
2024/04/02 03:45:05;;;;;;;;;;;19.90;55.20;;;;;;5044112;28;87009;-61
2024/04/02 03:47:31;;;;;;;;;;;19.90;55.80;;;;;;5046030;28;87346;-60
2024/04/02 03:49:56;;;;;;;;;;;19.90;55.20;;;;;;5045502;27;87611;-60
2024/04/02 03:52:22;;;;;;;;;;;19.90;55.40;;;;;;5045339;28;86990;-60
2024/04/02 03:54:48;;;;;;;;;;;19.90;55.20;;;;;;5044509;27;86936;-61
2024/04/02 03:57:13;;;;;;;;;;;19.90;55.40;;;;;;5042272;27;86761;-60
2024/04/02 03:59:39;;;;;;;;;;;19.90;55.20;;;;;;5046747;27;86978;-59
2024/04/02 04:02:04;;;;;;;;;;;19.90;55.30;;;;;;5043542;27;87899;-60
2024/04/02 04:04:30;;;;;;;;;;;19.80;55.50;;;;;;5041831;28;88098;-61
2024/04/02 04:06:56;;;;;;;;;;;19.80;55.30;;;;;;5044655;27;87805;-61
2024/04/02 04:09:21;;;;;;;;;;;19.80;55.20;;;;;;5044637;27;87871;-61
2024/04/02 04:11:47;;;;;;;;;;;19.80;54.80;;;;;;5045420;27;87071;-60
2024/04/02 04:14:13;;;;;;;;;;;19.80;55.30;;;;;;5042483;27;87046;-60
2024/04/02 04:16:38;;;;;;;;;;;19.80;55.10;;;;;;5039338;27;87976;-60
2024/04/02 04:19:04;;;;;;;;;;;19.80;55.00;;;;;;5041630;28;87722;-61
2024/04/02 04:21:30;;;;;;;;;;;19.80;55.10;;;;;;5047286;27;86739;-59
2024/04/02 04:23:56;;;;;;;;;;;19.80;54.90;;;;;;5044539;27;86968;-59
2024/04/02 04:26:21;;;;;;;;;;;19.80;54.80;;;;;;5045250;27;87774;-60
2024/04/02 04:28:47;;;;;;;;;;;19.80;54.90;;;;;;5042585;27;89649;-60
2024/04/02 04:31:12;;;;;;;;;;;19.80;54.90;;;;;;5040973;27;87866;-60
2024/04/02 04:33:38;;;;;;;;;;;19.70;54.70;;;;;;5045739;28;87222;-61
2024/04/02 04:36:04;;;;;;;;;;;19.70;54.70;;;;;;5044771;28;87828;-61
2024/04/02 04:38:29;;;;;;;;;;;19.70;54.70;;;;;;5043312;27;87120;-60
2024/04/02 04:40:55;;;;;;;;;;;19.70;54.50;;;;;;5044459;27;87016;-60
2024/04/02 04:43:20;;;;;;;;;;;19.70;54.80;;;;;;5046435;28;88116;-60
2024/04/02 04:45:56;;;;;;;;;;;19.70;54.40;;;;;;5044853;28;87062;-61
2024/04/02 04:48:22;;;;;;;;;;;19.70;54.40;;;;;;5043588;27;87598;-61
2024/04/02 04:50:57;;;;;;;;;;;19.60;54.40;;;;;;5043586;27;87152;-60
2024/04/02 04:53:23;;;;;;;;;;;19.60;53.80;;;;;;5040304;28;88314;-61
2024/04/02 04:55:48;;;;;;;;;;;19.60;54.20;;;;;;5044060;27;87861;-61
2024/04/02 04:58:14;;;;;;;;;;;19.60;54.70;;;;;;5044954;27;87582;-60
2024/04/02 05:00:40;;;;;;;;;;;19.60;54.60;;;;;;5042880;27;87043;-60
2024/04/02 05:03:05;;;;;;;;;;;19.60;54.70;;;;;;5040956;28;87497;-60
2024/04/02 05:05:31;;;;;;;;;;;19.60;54.60;;;;;;5046604;28;87244;-60
2024/04/02 05:08:14;;;;;;;;;;;19.60;54.70;;;;;;5043253;27;87616;-59
2024/04/02 05:10:39;;;;;;;;;;;19.60;54.60;;;;;;5043346;28;86594;-59
2024/04/02 05:13:08;;;;;;;;;;;19.60;54.50;;;;;;5045058;28;86906;-60
2024/04/02 05:15:33;;;;;;;;;;;19.60;54.70;;;;;;5043425;27;87428;-60
2024/04/02 05:17:59;;;;;;;;;;;19.60;54.60;;;;;;5039681;27;88760;-61
2024/04/02 05:20:25;;;;;;;;;;;19.60;54.90;;;;;;5042660;28;87064;-60
2024/04/02 05:22:51;;;;;;;;;;;19.60;54.80;;;;;;5041241;28;88523;-60
2024/04/02 05:25:16;;;;;;;;;;;19.50;54.80;;;;;;5039406;28;87366;-60
2024/04/02 05:27:42;;;;;;;;;;;19.60;54.90;;;;;;5057195;27;88746;-58
2024/04/02 05:30:08;;;;;;;;;;;19.50;54.90;;;;;;5040734;28;87711;-60
2024/04/02 05:32:34;;;;;;;;;;;19.50;54.60;;;;;;5044035;28;87332;-60
2024/04/02 05:35:01;;;;;;;;;;;19.60;54.90;;;;;;5042680;28;86320;-59
2024/04/02 05:37:27;;;;;;;;;;;19.60;55.00;;;;;;5043701;27;87343;-59
2024/04/02 05:39:52;;;;;;;;;;;19.60;55.00;;;;;;5041157;27;87007;-60
2024/04/02 05:42:18;;;;;;;;;;;19.50;55.20;;;;;;5043163;27;88537;-60
2024/04/02 05:44:44;;;;;;;;;;;19.50;55.30;;;;;;5042333;27;87496;-61
2024/04/02 05:47:09;;;;;;;;;;;19.60;55.30;;;;;;5042850;27;87747;-57
2024/04/02 05:49:35;;;;;;;;;;;19.50;55.10;;;;;;5045074;28;87147;-58
2024/04/02 05:52:00;;;;;;;;;;;19.50;55.20;;;;;;5042941;27;86951;-59
2024/04/02 05:54:26;;;;;;;;;;;19.50;55.30;;;;;;5042138;27;87603;-59
2024/04/02 05:56:51;;;;;;;;;;;19.50;55.20;;;;;;5040086;27;87342;-60
2024/04/02 05:59:17;;;;;;;;;;;19.50;55.00;;;;;;5044048;28;86548;-60
2024/04/02 06:01:43;;;;;;;;;;;19.50;55.20;;;;;;5042625;27;87684;-59
2024/04/02 06:04:08;;;;;;;;;;;19.50;55.40;;;;;;5043082;28;86867;-60
2024/04/02 06:06:34;;;;;;;;;;;19.50;55.30;;;;;;5040979;27;87995;-60
2024/04/02 06:08:59;;;;;;;;;;;19.50;55.20;;;;;;5043580;27;87993;-59
2024/04/02 06:11:25;;;;;;;;;;;19.50;55.20;;;;;;5046458;27;88104;-60
2024/04/02 06:13:51;;;;;;;;;;;19.50;55.20;;;;;;5039896;28;87370;-60
2024/04/02 06:16:16;;;;;;;;;;;19.50;55.40;;;;;;5037535;27;87649;-60
2024/04/02 06:18:42;;;;;;;;;;;19.50;55.40;;;;;;5042697;27;87529;-57
2024/04/02 06:21:08;;;;;;;;;;;19.40;55.10;;;;;;5039633;28;87435;-60
2024/04/02 06:23:33;;;;;;;;;;;19.40;54.90;;;;;;5040642;27;86418;-61
2024/04/02 06:25:59;;;;;;;;;;;19.40;54.80;;;;;;5043283;28;87529;-60
2024/04/02 06:28:24;;;;;;;;;;;19.40;54.90;;;;;;5039542;27;88635;-60
2024/04/02 06:30:50;;;;;;;;;;;19.40;55.10;;;;;;5046092;27;88596;-61
2024/04/02 06:33:15;;;;;;;;;;;19.40;55.10;;;;;;5042164;27;87619;-60
2024/04/02 06:35:41;;;;;;;;;;;19.40;54.70;;;;;;5046765;27;86999;-60
2024/04/02 06:38:07;;;;;;;;;;;19.40;55.20;;;;;;5043847;28;87006;-61
2024/04/02 06:40:32;;;;;;;;;;;19.40;55.10;;;;;;5042985;28;87748;-60
2024/04/02 06:42:58;;;;;;;;;;;19.40;55.10;;;;;;5044769;27;87006;-60
2024/04/02 06:45:25;;;;;;;;;;;19.40;55.20;;;;;;5044399;28;87676;-61
2024/04/02 06:47:51;;;;;;;;;;;19.40;55.40;;;;;;5043315;28;87028;-60
2024/04/02 06:50:17;;;;;;;;;;;19.40;55.40;;;;;;5045980;27;87529;-60
2024/04/02 06:52:42;;;;;;;;;;;19.40;55.40;;;;;;5049498;27;87019;-58
2024/04/02 06:55:08;;;;;;;;;;;19.40;55.40;;;;;;5046428;27;88420;-60
2024/04/02 06:57:33;;;;;;;;;;;19.40;55.60;;;;;;5043456;28;87848;-60
2024/04/02 06:59:59;;;;;;;;;;;19.40;55.60;;;;;;5044429;28;87490;-58
2024/04/02 07:02:26;;;;;;;;;;;19.40;55.60;;;;;;5043723;27;88868;-60
2024/04/02 07:04:52;;;;;;;;;;;19.40;55.50;;;;;;5045297;27;87191;-60
2024/04/02 07:07:17;;;;;;;;;;;19.40;55.30;;;;;;5041606;28;90042;-59
2024/04/02 07:09:43;;;;;;;;;;;19.50;55.40;;;;;;5044385;28;87047;-60
2024/04/02 07:12:10;;;;;;;;;;;19.40;55.30;;;;;;5044597;28;86866;-60
2024/04/02 07:14:36;;;;;;;;;;;19.50;55.40;;;;;;5047565;28;87375;-60
2024/04/02 07:17:02;;;;;;;;;;;19.40;55.20;;;;;;5031425;27;87084;-60
2024/04/02 07:19:28;;;;;;;;;;;19.40;55.00;;;;;;5043353;27;88939;-61
2024/04/02 07:21:53;;;;;;;;;;;19.50;54.90;;;;;;5045107;27;87010;-60
2024/04/02 07:24:19;;;;;;;;;;;19.50;54.70;;;;;;5045575;28;86947;-60
2024/04/02 07:26:45;;;;;;;;;;;19.40;55.00;;;;;;5045323;27;87667;-60
2024/04/02 07:29:10;;;;;;;;;;;19.40;54.90;;;;;;5045530;28;87029;-60
2024/04/02 07:31:36;;;;;;;;;;;19.40;55.00;;;;;;5043054;28;86998;-60
2024/04/02 07:34:01;;;;;;;;;;;19.50;55.20;;;;;;5043720;28;87013;-60
2024/04/02 07:36:27;;;;;;;;;;;19.50;55.20;;;;;;5057530;27;87171;-59
2024/04/02 07:38:52;;;;;;;;;;;19.50;55.10;;;;;;5044749;27;88843;-60
2024/04/02 07:41:18;;;;;;;;;;;19.50;55.20;;;;;;5046043;27;87073;-60
2024/04/02 07:43:44;;;;;;;;;;;19.40;55.20;;;;;;5044544;28;87846;-60
2024/04/02 07:46:09;;;;;;;;;;;19.40;55.10;;;;;;5043805;27;88667;-57
2024/04/02 07:48:35;;;;;;;;;;;19.50;55.30;;;;;;5045191;27;87041;-56
2024/04/02 07:51:07;;;;;;;;;;;19.40;55.30;;;;;;5045368;28;87091;-60
2024/04/02 07:53:33;;;;;;;;;;;19.40;56.10;;;;;;5044767;28;87738;-60
2024/04/02 07:55:58;;;;;;;;;;;19.40;55.40;;;;;;5044196;28;86989;-60
2024/04/02 07:58:24;;;;;;;;;;;19.40;55.50;;;;;;5046513;28;87377;-60
2024/04/02 08:00:49;;;;;;;;;;;19.50;55.60;;;;;;5044402;28;86366;-59
2024/04/02 08:03:15;;;;;;;;;;;19.50;55.40;;;;;;5043355;28;87489;-60
2024/04/02 08:05:41;;;;;;;;;;;19.50;55.40;;;;;;5038676;28;87392;-60
2024/04/02 08:08:06;;;;;;;;;;;19.50;55.60;;;;;;5044042;27;88054;-55
2024/04/02 08:10:32;;;;;;;;;;;19.50;55.50;;;;;;5044814;27;87886;-60
2024/04/02 08:12:58;;;;;;;;;;;19.40;55.40;;;;;;5043727;28;87630;-60
2024/04/02 08:15:24;;;;;;;;;;;19.40;55.50;;;;;;5043639;28;88565;-60
2024/04/02 08:17:49;;;;;;;;;;;19.50;55.40;;;;;;5046526;27;87781;-58
2024/04/02 08:20:15;;;;;;;;;;;19.50;55.30;;;;;;5042720;28;87066;-60
2024/04/02 08:22:41;;;;;;;;;;;19.50;55.50;;;;;;5044805;27;87145;-59
2024/04/02 08:25:07;;;;;;;;;;;19.50;55.60;;;;;;5044017;27;87910;-60
2024/04/02 08:27:33;;;;;;;;;;;19.50;55.40;;;;;;5043586;27;87401;-60
2024/04/02 08:29:58;;;;;;;;;;;19.50;55.60;;;;;;5044739;28;86960;-61
2024/04/02 08:32:24;;;;;;;;;;;19.50;55.50;;;;;;5042801;27;89015;-60
2024/04/02 08:34:50;;;;;;;;;;;19.50;55.40;;;;;;5045205;28;86906;-60
2024/04/02 08:37:16;;;;;;;;;;;19.50;55.20;;;;;;5044041;27;86930;-61
2024/04/02 08:39:41;;;;;;;;;;;19.50;55.40;;;;;;5046822;28;87436;-60
2024/04/02 08:42:07;;;;;;;;;;;19.50;55.10;;;;;;5043084;27;87911;-60
2024/04/02 08:44:33;;;;;;;;;;;19.50;55.20;;;;;;5042962;28;87506;-59
2024/04/02 08:46:59;;;;;;;;;;;19.50;55.00;;;;;;5043739;27;87585;-60
2024/04/02 08:49:25;;;;;;;;;;;19.50;54.90;;;;;;5043458;28;86883;-60
2024/04/02 08:51:51;;;;;;;;;;;19.50;54.70;;;;;;5041725;27;87297;-60
2024/04/02 08:54:17;;;;;;;;;;;19.50;54.60;;;;;;5043963;27;87353;-59
2024/04/02 08:56:42;;;;;;;;;;;19.50;54.60;;;;;;5044323;27;88277;-56
2024/04/02 08:59:11;;;;;;;;;;;19.50;54.30;;;;;;5043287;28;87471;-61
2024/04/02 09:01:36;;;;;;;;;;;19.50;55.10;;;;;;5047314;28;87752;-61
2024/04/02 09:04:03;;;;;;;;;;;19.50;54.70;;;;;;5043844;27;88624;-60
2024/04/02 09:06:28;;;;;;;;;;;19.50;54.60;;;;;;5044934;27;87364;-60
2024/04/02 09:08:56;;;;;;;;;;;19.50;54.50;;;;;;5044663;27;87966;-60
2024/04/02 09:11:23;;;;;;;;;;;19.60;54.60;;;;;;5043394;27;87639;-60
2024/04/02 09:13:48;;;;;;;;;;;19.50;54.30;;;;;;5043363;28;86178;-60
2024/04/02 09:16:14;;;;;;;;;;;19.50;54.10;;;;;;5042246;28;86888;-59
2024/04/02 09:18:48;;;;;;;;;;;19.50;54.40;;;;;;5044198;27;87684;-57
2024/04/02 09:21:14;;;;;;;;;;;19.50;55.20;;;;;;5040805;28;88104;-60
2024/04/02 09:23:39;;;;;;;;;;;19.60;54.80;;;;;;5047451;28;88151;-56
2024/04/02 09:26:08;;;;;;;;;;;19.60;54.80;;;;;;5044478;28;87038;-60
2024/04/02 09:28:36;;;;;;;;;;;19.50;54.90;;;;;;5044636;28;86935;-60
2024/04/02 09:31:02;;;;;;;;;;;19.60;54.90;;;;;;5043770;27;88533;-60
2024/04/02 09:33:28;;;;;;;;;;;19.60;54.80;;;;;;5043676;27;87092;-59
2024/04/02 09:36:06;;;;;;;;;;;19.60;54.70;;;;;;5042689;28;88524;-60
2024/04/02 09:38:33;;;;;;;;;;;19.60;54.80;;;;;;5042641;28;86722;-61
2024/04/02 09:40:58;;;;;;;;;;;19.60;54.90;;;;;;5043737;28;86969;-59
2024/04/02 09:43:25;;;;;;;;;;;19.60;54.50;;;;;;5040944;28;87992;-60
2024/04/02 09:45:51;;;;;;;;;;;19.60;54.20;;;;;;5044195;28;88366;-60
2024/04/02 09:48:20;;;;;;;;;;;19.60;54.40;;;;;;5042411;27;87804;-60
2024/04/02 09:50:46;;;;;;;;;;;19.60;54.60;;;;;;5042501;27;88388;-59
2024/04/02 09:53:12;;;;;;;;;;;19.60;54.60;;;;;;5043018;28;87799;-60
2024/04/02 09:55:39;;;;;;;;;;;19.60;54.60;;;;;;5044783;28;86978;-57
2024/04/02 09:58:06;;;;;;;;;;;19.60;54.20;;;;;;4688858;27;10001038;-60
2024/04/02 10:00:32;;;;;;;;;;;19.50;54.20;;;;;;5042687;27;87235;-60
2024/04/02 10:02:59;;;;;;;;;;;19.50;53.60;;;;;;5039522;27;87734;-59
2024/04/02 10:05:25;;;;;;;;;;;19.50;53.00;;;;;;5042039;27;87054;-60
2024/04/02 10:07:51;;;;;;;;;;;19.50;53.10;;;;;;5048162;27;87062;-60
2024/04/02 10:10:17;;;;;;;;;;;19.50;52.90;;;;;;5046326;27;87953;-60
2024/04/02 10:12:48;;;;;;;;;;;19.50;52.50;;;;;;5043188;27;87956;-59
2024/04/02 10:15:17;;;;;;;;;;;19.50;52.50;;;;;;5043477;28;88462;-60
2024/04/02 10:17:42;;;;;;;;;;;19.50;51.90;;;;;;5045948;27;87100;-60
2024/04/02 10:20:26;;;;;;;;;;;19.50;51.70;;;;;;5045835;28;87224;-60
2024/04/02 10:22:55;;;;;;;;;;;19.50;52.00;;;;;;5045137;28;87919;-59
2024/04/02 10:25:22;;;;;;;;;;;19.50;51.30;;;;;;5046861;27;86907;-60
2024/04/02 10:27:48;;;;;;;;;;;19.50;51.00;;;;;;5047964;27;87103;-60
2024/04/02 10:30:17;;;;;;;;;;;19.50;51.50;;;;;;5045070;28;87057;-59
2024/04/02 10:32:46;;;;;;;;;;;19.50;50.80;;;;;;5044464;28;87832;-58
2024/04/02 10:35:29;;;;;;;;;;;19.50;50.80;;;;;;5042383;28;88669;-60
2024/04/02 10:37:56;;;;;;;;;;;19.60;50.80;;;;;;5045432;28;87813;-59
2024/04/02 10:40:22;;;;;;;;;;;19.50;51.20;;;;;;5044941;27;86919;-58
2024/04/02 10:42:49;;;;;;;;;;;19.50;50.20;;;;;;5046623;27;88022;-60
2024/04/02 10:45:15;;;;;;;;;;;19.50;50.50;;;;;;5043943;27;87836;-60
2024/04/02 10:47:44;;;;;;;;;;;19.60;50.60;;;;;;5047185;27;87036;-59
2024/04/02 10:50:10;;;;;;;;;;;19.60;50.40;;;;;;5045260;28;87617;-58
2024/04/02 10:52:36;;;;;;;;;;;19.60;50.50;;;;;;5045960;27;87050;-58
2024/04/02 10:55:03;;;;;;;;;;;19.60;50.20;;;;;;5046369;27;88537;-59
2024/04/02 10:57:30;;;;;;;;;;;19.60;50.70;;;;;;5045090;27;87446;-59
2024/04/02 10:59:57;;;;;;;;;;;19.60;50.00;;;;;;5042407;28;88017;-59
2024/04/02 11:02:22;;;;;;;;;;;19.60;49.70;;;;;;5046237;28;87040;-59
2024/04/02 11:04:48;;;;;;;;;;;19.60;49.50;;;;;;5046847;27;87092;-57
2024/04/02 11:07:13;;;;;;;;;;;19.60;48.80;;;;;;5047048;27;87015;-58
2024/04/02 11:09:39;;;;;;;;;;;19.70;49.70;;;;;;5046502;27;88550;-59
2024/04/02 11:12:06;;;;;;;;;;;19.60;49.30;;;;;;5048582;28;87148;-60
2024/04/02 11:14:32;;;;;;;;;;;19.60;48.70;;;;;;5045638;27;87631;-59
2024/04/02 11:16:58;;;;;;;;;;;19.60;49.00;;;;;;5046688;27;86301;-59
2024/04/02 11:19:24;;;;;;;;;;;19.60;48.20;;;;;;5046622;27;86974;-59
2024/04/02 11:24:57;;;;;;;;;;;19.70;47.90;;;;;;5046418;27;87745;-59
2024/04/02 11:27:21;;;;;;;;;;;19.70;48.40;;;;;;5045561;28;87572;-59
2024/04/02 11:29:47;;;;;;;;;;;19.70;48.30;;;;;;5043916;28;86902;-59
2024/04/02 11:32:12;;;;;;;;;;;19.70;48.70;;;;;;5042453;27;87119;-59
2024/04/02 11:34:38;;;;;;;;;;;19.70;49.20;;;;;;5048509;28;87998;-59
2024/04/02 11:37:03;;;;;;;;;;;19.70;47.90;;;;;;5043369;28;88042;-60
2024/04/02 11:39:29;;;;;;;;;;;19.70;48.80;;;;;;5046279;28;87117;-59
2024/04/02 11:41:54;;;;;;;;;;;19.70;48.50;;;;;;5046421;28;86981;-59
2024/04/02 11:44:20;;;;;;;;;;;19.70;47.60;;;;;;5044326;27;86979;-58
2024/04/02 11:46:45;;;;;;;;;;;19.70;48.40;;;;;;5046220;28;86918;-60
2024/04/02 11:49:11;;;;;;;;;;;19.80;48.40;;;;;;5045249;28;88262;-59
2024/04/02 11:51:36;;;;;;;;;;;19.70;48.10;;;;;;5046237;28;87534;-60
2024/04/02 11:54:02;;;;;;;;;;;19.70;48.20;;;;;;5046129;27;86981;-59
2024/04/02 12:00:01;;;;;;;;;;;19.80;48.90;;;;;;5045565;27;87065;-59
2024/04/02 12:02:00;;;;;;;;;;;19.80;48.40;;;;;;5040982;28;87122;-60
2024/04/02 12:04:26;;;;;;;;;;;19.80;49.20;;;;;;5044940;28;87457;-60
2024/04/02 12:06:57;;;;;;;;;;;19.80;48.50;;;;;;5045639;28;86783;-57
2024/04/02 12:09:23;;;;;;;;;;;19.90;48.60;;;;;;5045526;28;87732;-59
2024/04/02 12:11:48;;;;;;;;;;;19.80;48.50;;;;;;5045349;27;87245;-60
2024/04/02 12:14:14;;;;;;;;;;;19.80;48.90;;;;;;5043429;27;88006;-59
2024/04/02 12:16:39;;;;;;;;;;;19.80;48.70;;;;;;5044416;28;87569;-60
2024/04/02 12:19:05;;;;;;;;;;;19.80;48.80;;;;;;5048785;28;87056;-59
2024/04/02 12:21:31;;;;;;;;;;;19.90;48.90;;;;;;5045218;28;87670;-60
2024/04/02 12:23:56;;;;;;;;;;;19.90;48.30;;;;;;5044369;27;86896;-60
2024/04/02 12:26:22;;;;;;;;;;;19.90;48.50;;;;;;5045539;27;86918;-59
2024/04/02 12:28:47;;;;;;;;;;;19.90;48.00;;;;;;5042316;27;89434;-60
2024/04/02 12:31:13;;;;;;;;;;;19.90;47.90;;;;;;5044012;27;86402;-58
2024/04/02 12:33:39;;;;;;;;;;;19.90;48.40;;;;;;5043326;28;87200;-60
2024/04/02 12:36:06;;;;;;;;;;;19.90;49.10;;;;;;5042963;28;87712;-60
2024/04/02 12:38:31;;;;;;;;;;;19.90;48.50;;;;;;5046962;27;88095;-59
2024/04/02 12:41:00;;;;;;;;;;;19.90;47.70;;;;;;5044537;27;87348;-60
2024/04/02 12:43:26;;;;;;;;;;;19.90;47.80;;;;;;5042349;27;86871;-59
2024/04/02 12:45:52;;;;;;;;;;;20.00;48.00;;;;;;5042674;28;86975;-60
2024/04/02 12:48:17;;;;;;;;;;;19.90;48.30;;;;;;5041264;27;87592;-59
2024/04/02 12:50:52;;;;;;;;;;;19.90;47.80;;;;;;5045283;28;87029;-57
2024/04/02 12:53:20;;;;;;;;;;;19.90;47.90;;;;;;5041927;28;86863;-60
2024/04/02 12:55:46;;;;;;;;;;;20.00;47.10;;;;;;5045073;27;86897;-60
2024/04/02 12:58:12;;;;;;;;;;;20.00;48.00;;;;;;5045065;27;87006;-59
2024/04/02 13:00:38;;;;;;;;;;;20.00;47.50;;;;;;5044267;27;87078;-59
2024/04/02 13:03:03;;;;;;;;;;;20.00;47.20;;;;;;5041643;28;88482;-59
2024/04/02 13:05:35;;;;;;;;;;;20.00;47.30;;;;;;5042475;27;86933;-59
2024/04/02 13:08:01;;;;;;;;;;;20.00;47.10;;;;;;5043986;28;86965;-59
2024/04/02 13:10:26;;;;;;;;;;;20.00;47.00;;;;;;5044860;27;86910;-60
2024/04/02 13:12:52;;;;;;;;;;;20.00;47.10;;;;;;5044591;28;86942;-58
2024/04/02 13:15:18;;;;;;;;;;;20.00;47.00;;;;;;5043702;28;88041;-59
2024/04/02 13:17:43;;;;;;;;;;;20.00;46.00;;;;;;5044257;28;86935;-59
2024/04/02 13:20:10;;;;;;;;;;;20.00;46.50;;;;;;5040584;28;87065;-58
2024/04/02 13:22:35;;;;;;;;;;;20.00;46.50;;;;;;5043309;28;87636;-58
2024/04/02 13:25:01;;;;;;;;;;;20.00;46.20;;;;;;5044048;28;87564;-58
2024/04/02 13:27:27;;;;;;;;;;;20.00;46.30;;;;;;5043454;28;89464;-57
2024/04/02 13:29:53;;;;;;;;;;;20.00;46.80;;;;;;5043241;28;87408;-58
2024/04/02 13:32:18;;;;;;;;;;;20.00;46.60;;;;;;5044346;27;86925;-58
2024/04/02 13:34:46;;;;;;;;;;;20.00;47.30;;;;;;5044306;27;86785;-57
2024/04/02 13:37:12;;;;;;;;;;;20.10;46.70;;;;;;5044281;28;87002;-59
2024/04/02 13:39:40;;;;;;;;;;;20.10;46.40;;;;;;5045341;27;87018;-59
2024/04/02 13:42:06;;;;;;;;;;;20.10;47.10;;;;;;5047308;28;87451;-58
2024/04/02 13:44:31;;;;;;;;;;;20.10;46.40;;;;;;5050669;27;86316;-58
2024/04/02 13:46:57;;;;;;;;;;;20.10;47.20;;;;;;5043106;27;87383;-58
2024/04/02 13:49:22;;;;;;;;;;;20.10;46.50;;;;;;5051722;27;87217;-59
2024/04/02 13:51:48;;;;;;;;;;;20.10;46.40;;;;;;5046008;27;88001;-58
2024/04/02 13:54:13;;;;;;;;;;;20.20;47.40;;;;;;5047797;28;87466;-58
2024/04/02 13:56:39;;;;;;;;;;;20.20;46.90;;;;;;5048057;28;87095;-58
2024/04/02 13:59:04;;;;;;;;;;;20.20;46.50;;;;;;5047613;28;87912;-58
2024/04/02 14:01:30;;;;;;;;;;;20.20;46.40;;;;;;5045835;28;87440;-58
2024/04/02 14:03:56;;;;;;;;;;;20.30;46.50;;;;;;5043588;27;87047;-58
2024/04/02 14:06:21;;;;;;;;;;;20.30;47.40;;;;;;5049952;28;87017;-59
2024/04/02 14:08:47;;;;;;;;;;;20.30;47.50;;;;;;5047928;27;86318;-59
2024/04/02 14:11:14;;;;;;;;;;;20.20;46.60;;;;;;5047724;27;87082;-58
2024/04/02 14:13:42;;;;;;;;;;;20.20;46.30;;;;;;5047031;27;87645;-57
2024/04/02 14:16:10;;;;;;;;;;;20.30;46.10;;;;;;5045953;28;87968;-59